Terminal Aerodrome Forecast
Issued by NWS

Home | Current Version | Previous Version | Text Only | Print | Product List | Glossary On
Versions: 1 2 3 4 5 6 7 8 9 10 11 12 13 14 15 16 17
864
FTUS42 KMHX 300552
TAFISO
TAF
KISO 300552Z 3006/3106 12003KT P6SM SKC
     FM301200 08009KT P6SM SCT060
     FM301800 12010KT P6SM FEW030 SCT060
     FM302300 12008KT P6SM SCT030 BKN070
      AMD LTD TO CLD VIS AND WIND=

USA.gov is the U.S. government's official web portal to all federal, state and local government web resources and services.